sensor_id;sensor_type;location;lat;lon;timestamp;P1;durP1;ratioP1;P2;durP2;ratioP2
23384;SDS011;11865;45.394;10.978;2023-07-20T00:01:34;3.83;;;2.08;;
23384;SDS011;11865;45.394;10.978;2023-07-20T00:04:02;0.60;;;0.60;;
23384;SDS011;11865;45.394;10.978;2023-07-20T00:06:29;10.85;;;0.93;;
23384;SDS011;11865;45.394;10.978;2023-07-20T00:08:57;0.77;;;0.77;;
23384;SDS011;11865;45.394;10.978;2023-07-20T00:11:26;3.13;;;1.50;;
23384;SDS011;11865;45.394;10.978;2023-07-20T00:13:56;6.28;;;3.03;;
23384;SDS011;11865;45.394;10.978;2023-07-20T00:16:24;1.58;;;1.17;;
23384;SDS011;11865;45.394;10.978;2023-07-20T00:18:52;4.47;;;2.13;;
23384;SDS011;11865;45.394;10.978;2023-07-20T00:21:20;1.92;;;1.80;;
23384;SDS011;11865;45.394;10.978;2023-07-20T00:23:47;0.50;;;0.50;;
23384;SDS011;11865;45.394;10.978;2023-07-20T00:26:15;1.92;;;1.63;;
23384;SDS011;11865;45.394;10.978;2023-07-20T00:28:42;1.58;;;1.45;;
23384;SDS011;11865;45.394;10.978;2023-07-20T00:31:10;0.93;;;0.93;;
23384;SDS011;11865;45.394;10.978;2023-07-20T00:33:38;0.77;;;0.77;;
23384;SDS011;11865;45.394;10.978;2023-07-20T00:36:05;1.73;;;1.10;;
23384;SDS011;11865;45.394;10.978;2023-07-20T00:38:33;0.30;;;0.30;;
23384;SDS011;11865;45.394;10.978;2023-07-20T00:41:01;4.25;;;1.73;;
23384;SDS011;11865;45.394;10.978;2023-07-20T00:43:28;0.47;;;0.47;;
23384;SDS011;11865;45.394;10.978;2023-07-20T00:45:56;2.10;;;1.90;;
23384;SDS011;11865;45.394;10.978;2023-07-20T00:48:23;1.85;;;1.73;;
23384;SDS011;11865;45.394;10.978;2023-07-20T00:50:53;3.50;;;1.85;;
23384;SDS011;11865;45.394;10.978;2023-07-20T00:53:24;1.52;;;1.42;;
23384;SDS011;11865;45.394;10.978;2023-07-20T00:55:53;0.65;;;0.65;;
23384;SDS011;11865;45.394;10.978;2023-07-20T00:58:20;1.60;;;1.50;;
23384;SDS011;11865;45.394;10.978;2023-07-20T01:00:48;0.57;;;0.57;;
23384;SDS011;11865;45.394;10.978;2023-07-20T01:03:16;1.98;;;1.17;;
23384;SDS011;11865;45.394;10.978;2023-07-20T01:05:47;0.47;;;0.47;;
23384;SDS011;11865;45.394;10.978;2023-07-20T01:08:46;2.63;;;1.42;;
23384;SDS011;11865;45.394;10.978;2023-07-20T01:14:16;0.75;;;0.75;;
23384;SDS011;11865;45.394;10.978;2023-07-20T01:16:44;0.93;;;0.93;;
23384;SDS011;11865;45.394;10.978;2023-07-20T01:19:13;0.50;;;0.50;;
23384;SDS011;11865;45.394;10.978;2023-07-20T01:21:46;3.42;;;2.80;;
23384;SDS011;11865;45.394;10.978;2023-07-20T01:33:17;3.03;;;1.20;;
23384;SDS011;11865;45.394;10.978;2023-07-20T01:35:52;0.95;;;0.95;;
23384;SDS011;11865;45.394;10.978;2023-07-20T01:38:22;0.82;;;0.43;;
23384;SDS011;11865;45.394;10.978;2023-07-20T01:40:51;0.63;;;0.63;;
23384;SDS011;11865;45.394;10.978;2023-07-20T01:43:20;1.52;;;1.42;;
23384;SDS011;11865;45.394;10.978;2023-07-20T01:45:47;0.90;;;0.90;;
23384;SDS011;11865;45.394;10.978;2023-07-20T01:48:15;0.45;;;0.45;;
23384;SDS011;11865;45.394;10.978;2023-07-20T01:50:42;0.80;;;0.80;;
23384;SDS011;11865;45.394;10.978;2023-07-20T01:53:10;1.77;;;0.68;;
23384;SDS011;11865;45.394;10.978;2023-07-20T01:55:38;1.48;;;1.38;;
23384;SDS011;11865;45.394;10.978;2023-07-20T01:58:05;0.40;;;0.40;;
23384;SDS011;11865;45.394;10.978;2023-07-20T02:00:33;4.03;;;3.63;;
23384;SDS011;11865;45.394;10.978;2023-07-20T02:03:01;9.48;;;2.35;;
23384;SDS011;11865;45.394;10.978;2023-07-20T02:05:28;5.55;;;2.33;;
23384;SDS011;11865;45.394;10.978;2023-07-20T02:07:56;0.25;;;0.25;;
23384;SDS011;11865;45.394;10.978;2023-07-20T02:10:23;0.70;;;0.65;;
23384;SDS011;11865;45.394;10.978;2023-07-20T02:12:51;0.75;;;0.75;;
23384;SDS011;11865;45.394;10.978;2023-07-20T02:15:18;1.38;;;0.95;;
23384;SDS011;11865;45.394;10.978;2023-07-20T02:17:46;1.52;;;1.42;;
23384;SDS011;11865;45.394;10.978;2023-07-20T02:20:14;1.27;;;1.00;;
23384;SDS011;11865;45.394;10.978;2023-07-20T02:22:42;0.55;;;0.55;;
23384;SDS011;11865;45.394;10.978;2023-07-20T02:25:09;1.23;;;1.23;;
23384;SDS011;11865;45.394;10.978;2023-07-20T02:27:37;1.42;;;1.33;;
23384;SDS011;11865;45.394;10.978;2023-07-20T02:30:06;0.68;;;0.50;;
23384;SDS011;11865;45.394;10.978;2023-07-20T02:32:33;3.03;;;1.00;;
23384;SDS011;11865;45.394;10.978;2023-07-20T02:35:01;0.20;;;0.20;;
23384;SDS011;11865;45.394;10.978;2023-07-20T02:37:30;1.80;;;1.45;;
23384;SDS011;11865;45.394;10.978;2023-07-20T02:39:58;1.52;;;0.55;;
23384;SDS011;11865;45.394;10.978;2023-07-20T02:42:26;0.57;;;0.57;;
23384;SDS011;11865;45.394;10.978;2023-07-20T02:44:54;0.22;;;0.22;;
23384;SDS011;11865;45.394;10.978;2023-07-20T02:47:22;0.25;;;0.25;;
23384;SDS011;11865;45.394;10.978;2023-07-20T02:49:50;1.67;;;0.85;;
23384;SDS011;11865;45.394;10.978;2023-07-20T02:52:18;0.10;;;0.10;;
23384;SDS011;11865;45.394;10.978;2023-07-20T02:54:48;2.72;;;1.48;;
23384;SDS011;11865;45.394;10.978;2023-07-20T02:57:16;5.15;;;1.95;;
23384;SDS011;11865;45.394;10.978;2023-07-20T02:59:43;0.30;;;0.30;;
23384;SDS011;11865;45.394;10.978;2023-07-20T03:02:11;0.45;;;0.45;;
23384;SDS011;11865;45.394;10.978;2023-07-20T03:04:38;0.35;;;0.35;;
23384;SDS011;11865;45.394;10.978;2023-07-20T03:07:06;0.52;;;0.52;;
23384;SDS011;11865;45.394;10.978;2023-07-20T03:09:36;0.82;;;0.77;;
23384;SDS011;11865;45.394;10.978;2023-07-20T03:12:04;0.73;;;0.73;;
23384;SDS011;11865;45.394;10.978;2023-07-20T03:14:32;0.93;;;0.85;;
23384;SDS011;11865;45.394;10.978;2023-07-20T03:16:59;0.85;;;0.85;;
23384;SDS011;11865;45.394;10.978;2023-07-20T03:19:27;1.20;;;1.13;;
23384;SDS011;11865;45.394;10.978;2023-07-20T03:21:55;1.27;;;1.17;;
23384;SDS011;11865;45.394;10.978;2023-07-20T03:24:22;0.80;;;0.80;;
23384;SDS011;11865;45.394;10.978;2023-07-20T03:26:51;0.52;;;0.52;;
23384;SDS011;11865;45.394;10.978;2023-07-20T03:29:18;1.15;;;1.05;;
23384;SDS011;11865;45.394;10.978;2023-07-20T03:31:46;1.38;;;1.20;;
23384;SDS011;11865;45.394;10.978;2023-07-20T03:34:14;0.38;;;0.38;;
23384;SDS011;11865;45.394;10.978;2023-07-20T03:36:42;2.00;;;1.25;;
23384;SDS011;11865;45.394;10.978;2023-07-20T03:39:11;10.25;;;2.90;;
23384;SDS011;11865;45.394;10.978;2023-07-20T03:41:39;0.45;;;0.43;;
23384;SDS011;11865;45.394;10.978;2023-07-20T03:44:06;1.00;;;0.90;;
23384;SDS011;11865;45.394;10.978;2023-07-20T03:46:34;0.10;;;0.10;;
23384;SDS011;11865;45.394;10.978;2023-07-20T03:49:02;7.93;;;1.40;;
23384;SDS011;11865;45.394;10.978;2023-07-20T03:51:30;0.57;;;0.57;;
23384;SDS011;11865;45.394;10.978;2023-07-20T03:53:58;0.55;;;0.55;;
23384;SDS011;11865;45.394;10.978;2023-07-20T03:56:25;0.50;;;0.50;;
23384;SDS011;11865;45.394;10.978;2023-07-20T03:58:53;0.45;;;0.45;;
23384;SDS011;11865;45.394;10.978;2023-07-20T04:01:21;2.13;;;2.00;;
23384;SDS011;11865;45.394;10.978;2023-07-20T04:03:48;0.00;;;0.00;;
23384;SDS011;11865;45.394;10.978;2023-07-20T04:06:16;0.43;;;0.43;;
23384;SDS011;11865;45.394;10.978;2023-07-20T04:08:44;5.72;;;1.00;;
23384;SDS011;11865;45.394;10.978;2023-07-20T04:11:14;0.45;;;0.45;;
23384;SDS011;11865;45.394;10.978;2023-07-20T04:13:42;1.15;;;1.02;;
23384;SDS011;11865;45.394;10.978;2023-07-20T04:16:09;0.28;;;0.28;;
23384;SDS011;11865;45.394;10.978;2023-07-20T04:18:37;0.30;;;0.30;;
23384;SDS011;11865;45.394;10.978;2023-07-20T04:21:05;0.10;;;0.10;;
23384;SDS011;11865;45.394;10.978;2023-07-20T04:23:34;0.57;;;0.57;;
23384;SDS011;11865;45.394;10.978;2023-07-20T04:26:03;2.40;;;1.83;;
23384;SDS011;11865;45.394;10.978;2023-07-20T04:28:33;4.15;;;2.15;;
23384;SDS011;11865;45.394;10.978;2023-07-20T04:31:11;0.63;;;0.60;;
23384;SDS011;11865;45.394;10.978;2023-07-20T04:33:40;0.28;;;0.28;;
23384;SDS011;11865;45.394;10.978;2023-07-20T04:36:07;0.90;;;0.90;;
23384;SDS011;11865;45.394;10.978;2023-07-20T04:38:36;1.55;;;1.20;;
23384;SDS011;11865;45.394;10.978;2023-07-20T04:41:09;1.90;;;1.70;;
23384;SDS011;11865;45.394;10.978;2023-07-20T04:43:42;3.45;;;1.15;;
23384;SDS011;11865;45.394;10.978;2023-07-20T04:46:15;1.08;;;0.98;;
23384;SDS011;11865;45.394;10.978;2023-07-20T04:48:45;1.38;;;1.05;;
23384;SDS011;11865;45.394;10.978;2023-07-20T04:51:15;0.52;;;0.52;;
23384;SDS011;11865;45.394;10.978;2023-07-20T04:53:44;1.15;;;1.13;;
23384;SDS011;11865;45.394;10.978;2023-07-20T04:56:11;1.08;;;0.98;;
23384;SDS011;11865;45.394;10.978;2023-07-20T04:58:39;1.77;;;0.85;;
23384;SDS011;11865;45.394;10.978;2023-07-20T05:01:07;0.60;;;0.60;;
23384;SDS011;11865;45.394;10.978;2023-07-20T05:03:36;1.02;;;0.85;;
23384;SDS011;11865;45.394;10.978;2023-07-20T05:06:04;0.30;;;0.30;;
23384;SDS011;11865;45.394;10.978;2023-07-20T05:08:31;0.80;;;0.80;;
23384;SDS011;11865;45.394;10.978;2023-07-20T05:10:59;0.77;;;0.77;;
23384;SDS011;11865;45.394;10.978;2023-07-20T05:13:27;1.42;;;1.17;;
23384;SDS011;11865;45.394;10.978;2023-07-20T05:15:54;2.20;;;1.42;;
23384;SDS011;11865;45.394;10.978;2023-07-20T05:18:22;0.57;;;0.57;;
23384;SDS011;11865;45.394;10.978;2023-07-20T05:20:50;1.08;;;0.40;;
23384;SDS011;11865;45.394;10.978;2023-07-20T05:23:19;0.63;;;0.63;;
23384;SDS011;11865;45.394;10.978;2023-07-20T05:25:47;0.20;;;0.20;;
23384;SDS011;11865;45.394;10.978;2023-07-20T05:28:25;1.55;;;0.57;;
23384;SDS011;11865;45.394;10.978;2023-07-20T05:30:55;0.52;;;0.52;;
23384;SDS011;11865;45.394;10.978;2023-07-20T05:33:23;0.57;;;0.57;;
23384;SDS011;11865;45.394;10.978;2023-07-20T05:35:51;1.35;;;0.68;;
23384;SDS011;11865;45.394;10.978;2023-07-20T05:38:18;0.85;;;0.85;;
23384;SDS011;11865;45.394;10.978;2023-07-20T05:40:45;2.38;;;0.98;;
23384;SDS011;11865;45.394;10.978;2023-07-20T05:43:14;2.72;;;0.88;;
23384;SDS011;11865;45.394;10.978;2023-07-20T05:45:42;1.00;;;0.63;;
23384;SDS011;11865;45.394;10.978;2023-07-20T05:48:10;0.85;;;0.38;;
23384;SDS011;11865;45.394;10.978;2023-07-20T05:50:41;0.57;;;0.57;;
23384;SDS011;11865;45.394;10.978;2023-07-20T05:53:10;3.00;;;1.25;;
23384;SDS011;11865;45.394;10.978;2023-07-20T05:55:38;1.02;;;0.95;;
23384;SDS011;11865;45.394;10.978;2023-07-20T05:58:07;3.28;;;2.90;;
23384;SDS011;11865;45.394;10.978;2023-07-20T06:00:34;2.55;;;0.40;;
23384;SDS011;11865;45.394;10.978;2023-07-20T06:03:02;0.52;;;0.52;;
23384;SDS011;11865;45.394;10.978;2023-07-20T06:05:30;2.75;;;1.63;;
23384;SDS011;11865;45.394;10.978;2023-07-20T06:07:57;3.08;;;1.58;;
23384;SDS011;11865;45.394;10.978;2023-07-20T06:10:27;0.45;;;0.45;;
23384;SDS011;11865;45.394;10.978;2023-07-20T06:12:54;2.05;;;1.60;;
23384;SDS011;11865;45.394;10.978;2023-07-20T06:15:30;0.38;;;0.38;;
23384;SDS011;11865;45.394;10.978;2023-07-20T06:18:01;1.30;;;1.20;;
23384;SDS011;11865;45.394;10.978;2023-07-20T06:20:30;0.35;;;0.35;;
23384;SDS011;11865;45.394;10.978;2023-07-20T06:22:58;1.20;;;1.10;;
23384;SDS011;11865;45.394;10.978;2023-07-20T06:25:25;8.15;;;5.10;;
23384;SDS011;11865;45.394;10.978;2023-07-20T06:27:54;11.85;;;8.65;;
23384;SDS011;11865;45.394;10.978;2023-07-20T06:30:22;13.93;;;8.38;;
23384;SDS011;11865;45.394;10.978;2023-07-20T06:32:51;12.45;;;8.52;;
23384;SDS011;11865;45.394;10.978;2023-07-20T06:35:19;12.98;;;8.57;;
23384;SDS011;11865;45.394;10.978;2023-07-20T06:37:47;13.23;;;8.85;;
23384;SDS011;11865;45.394;10.978;2023-07-20T06:40:14;13.98;;;8.23;;
23384;SDS011;11865;45.394;10.978;2023-07-20T06:42:44;12.85;;;8.32;;
23384;SDS011;11865;45.394;10.978;2023-07-20T06:45:15;13.45;;;7.93;;
23384;SDS011;11865;45.394;10.978;2023-07-20T06:47:43;11.18;;;8.10;;
23384;SDS011;11865;45.394;10.978;2023-07-20T06:50:11;11.80;;;8.77;;
23384;SDS011;11865;45.394;10.978;2023-07-20T06:52:43;11.10;;;8.38;;
23384;SDS011;11865;45.394;10.978;2023-07-20T06:55:11;12.70;;;8.13;;
23384;SDS011;11865;45.394;10.978;2023-07-20T06:57:38;10.85;;;8.35;;
23384;SDS011;11865;45.394;10.978;2023-07-20T07:00:07;11.02;;;8.52;;
23384;SDS011;11865;45.394;10.978;2023-07-20T07:02:35;14.20;;;8.05;;
23384;SDS011;11865;45.394;10.978;2023-07-20T07:05:03;13.50;;;7.80;;
23384;SDS011;11865;45.394;10.978;2023-07-20T07:07:46;13.23;;;8.20;;
23384;SDS011;11865;45.394;10.978;2023-07-20T07:10:14;11.82;;;7.68;;
23384;SDS011;11865;45.394;10.978;2023-07-20T07:12:42;12.02;;;9.23;;
23384;SDS011;11865;45.394;10.978;2023-07-20T07:15:09;12.05;;;7.93;;
23384;SDS011;11865;45.394;10.978;2023-07-20T07:17:40;13.57;;;8.63;;
23384;SDS011;11865;45.394;10.978;2023-07-20T07:20:08;11.75;;;8.40;;
23384;SDS011;11865;45.394;10.978;2023-07-20T07:22:46;11.52;;;7.97;;
23384;SDS011;11865;45.394;10.978;2023-07-20T07:25:14;11.65;;;7.90;;
23384;SDS011;11865;45.394;10.978;2023-07-20T07:27:49;9.30;;;7.53;;
23384;SDS011;11865;45.394;10.978;2023-07-20T07:30:16;11.55;;;7.20;;
23384;SDS011;11865;45.394;10.978;2023-07-20T07:32:44;9.82;;;6.82;;
23384;SDS011;11865;45.394;10.978;2023-07-20T07:39:21;11.00;;;7.50;;
23384;SDS011;11865;45.394;10.978;2023-07-20T07:41:54;11.65;;;7.30;;
23384;SDS011;11865;45.394;10.978;2023-07-20T07:44:21;13.80;;;7.30;;
23384;SDS011;11865;45.394;10.978;2023-07-20T07:46:49;10.23;;;8.45;;
23384;SDS011;11865;45.394;10.978;2023-07-20T07:49:17;12.18;;;8.18;;
23384;SDS011;11865;45.394;10.978;2023-07-20T07:51:46;11.30;;;7.50;;
23384;SDS011;11865;45.394;10.978;2023-07-20T07:54:14;11.18;;;7.40;;
23384;SDS011;11865;45.394;10.978;2023-07-20T07:56:41;14.43;;;7.63;;
23384;SDS011;11865;45.394;10.978;2023-07-20T07:59:09;10.05;;;6.95;;
23384;SDS011;11865;45.394;10.978;2023-07-20T08:01:38;8.73;;;6.40;;
23384;SDS011;11865;45.394;10.978;2023-07-20T08:04:05;12.32;;;6.75;;
23384;SDS011;11865;45.394;10.978;2023-07-20T08:06:33;9.57;;;7.00;;
23384;SDS011;11865;45.394;10.978;2023-07-20T08:09:00;10.25;;;7.55;;
23384;SDS011;11865;45.394;10.978;2023-07-20T08:11:28;7.53;;;5.72;;
23384;SDS011;11865;45.394;10.978;2023-07-20T08:13:57;10.13;;;5.18;;
23384;SDS011;11865;45.394;10.978;2023-07-20T08:16:26;11.02;;;5.97;;
23384;SDS011;11865;45.394;10.978;2023-07-20T08:18:55;6.80;;;5.40;;
23384;SDS011;11865;45.394;10.978;2023-07-20T08:21:23;21.27;;;8.13;;
23384;SDS011;11865;45.394;10.978;2023-07-20T08:23:50;7.63;;;5.78;;
23384;SDS011;11865;45.394;10.978;2023-07-20T08:26:18;8.13;;;5.43;;
23384;SDS011;11865;45.394;10.978;2023-07-20T08:28:45;9.63;;;5.88;;
23384;SDS011;11865;45.394;10.978;2023-07-20T08:31:15;10.30;;;6.22;;
23384;SDS011;11865;45.394;10.978;2023-07-20T08:33:42;12.80;;;6.82;;
23384;SDS011;11865;45.394;10.978;2023-07-20T08:36:10;16.13;;;8.63;;
23384;SDS011;11865;45.394;10.978;2023-07-20T08:38:38;11.93;;;7.40;;
23384;SDS011;11865;45.394;10.978;2023-07-20T08:41:05;10.35;;;6.65;;
23384;SDS011;11865;45.394;10.978;2023-07-20T08:43:33;10.13;;;7.70;;
23384;SDS011;11865;45.394;10.978;2023-07-20T08:46:03;14.70;;;7.82;;
23384;SDS011;11865;45.394;10.978;2023-07-20T08:48:32;11.35;;;7.82;;
23384;SDS011;11865;45.394;10.978;2023-07-20T08:51:00;14.57;;;7.32;;
23384;SDS011;11865;45.394;10.978;2023-07-20T08:53:29;12.30;;;7.97;;
23384;SDS011;11865;45.394;10.978;2023-07-20T08:55:57;15.18;;;7.75;;
23384;SDS011;11865;45.394;10.978;2023-07-20T08:58:26;12.35;;;7.63;;
23384;SDS011;11865;45.394;10.978;2023-07-20T09:00:55;10.93;;;7.35;;
23384;SDS011;11865;45.394;10.978;2023-07-20T09:03:23;12.25;;;7.68;;
23384;SDS011;11865;45.394;10.978;2023-07-20T09:05:52;11.40;;;7.78;;
23384;SDS011;11865;45.394;10.978;2023-07-20T09:08:20;12.43;;;6.68;;
23384;SDS011;11865;45.394;10.978;2023-07-20T09:10:48;15.43;;;7.45;;
23384;SDS011;11865;45.394;10.978;2023-07-20T09:13:15;12.77;;;7.10;;
23384;SDS011;11865;45.394;10.978;2023-07-20T09:15:46;13.27;;;7.68;;
23384;SDS011;11865;45.394;10.978;2023-07-20T09:18:23;10.98;;;7.35;;
23384;SDS011;11865;45.394;10.978;2023-07-20T09:21:01;12.63;;;6.80;;
23384;SDS011;11865;45.394;10.978;2023-07-20T09:23:33;16.80;;;7.15;;
23384;SDS011;11865;45.394;10.978;2023-07-20T09:26:13;12.93;;;7.25;;
23384;SDS011;11865;45.394;10.978;2023-07-20T09:28:42;15.35;;;8.02;;
23384;SDS011;11865;45.394;10.978;2023-07-20T09:31:17;12.73;;;8.02;;
23384;SDS011;11865;45.394;10.978;2023-07-20T09:36:16;15.43;;;7.10;;
23384;SDS011;11865;45.394;10.978;2023-07-20T09:39:04;9.60;;;6.07;;
23384;SDS011;11865;45.394;10.978;2023-07-20T09:41:39;11.00;;;7.43;;
23384;SDS011;11865;45.394;10.978;2023-07-20T09:44:15;12.38;;;7.15;;
23384;SDS011;11865;45.394;10.978;2023-07-20T09:46:46;13.10;;;6.65;;
23384;SDS011;11865;45.394;10.978;2023-07-20T09:49:18;10.93;;;6.85;;
23384;SDS011;11865;45.394;10.978;2023-07-20T09:51:49;9.68;;;7.65;;
23384;SDS011;11865;45.394;10.978;2023-07-20T09:54:18;12.50;;;7.47;;
23384;SDS011;11865;45.394;10.978;2023-07-20T09:56:48;10.93;;;7.53;;
23384;SDS011;11865;45.394;10.978;2023-07-20T09:59:17;12.75;;;7.30;;
23384;SDS011;11865;45.394;10.978;2023-07-20T10:01:45;12.25;;;7.55;;
23384;SDS011;11865;45.394;10.978;2023-07-20T10:04:14;9.38;;;7.32;;
23384;SDS011;11865;45.394;10.978;2023-07-20T10:06:46;16.10;;;8.93;;
23384;SDS011;11865;45.394;10.978;2023-07-20T10:09:16;12.30;;;7.43;;
23384;SDS011;11865;45.394;10.978;2023-07-20T10:11:46;11.73;;;7.03;;
23384;SDS011;11865;45.394;10.978;2023-07-20T10:14:38;12.55;;;6.75;;
23384;SDS011;11865;45.394;10.978;2023-07-20T10:17:10;13.32;;;6.70;;
23384;SDS011;11865;45.394;10.978;2023-07-20T10:19:42;11.00;;;6.32;;
23384;SDS011;11865;45.394;10.978;2023-07-20T10:22:19;13.43;;;6.68;;
23384;SDS011;11865;45.394;10.978;2023-07-20T10:24:51;12.63;;;6.53;;
23384;SDS011;11865;45.394;10.978;2023-07-20T10:27:20;11.00;;;6.78;;
23384;SDS011;11865;45.394;10.978;2023-07-20T10:29:48;12.02;;;6.70;;
23384;SDS011;11865;45.394;10.978;2023-07-20T10:32:18;12.35;;;6.38;;
23384;SDS011;11865;45.394;10.978;2023-07-20T10:34:53;11.40;;;6.40;;
23384;SDS011;11865;45.394;10.978;2023-07-20T10:37:59;11.40;;;6.13;;
23384;SDS011;11865;45.394;10.978;2023-07-20T10:40:27;9.80;;;5.95;;
23384;SDS011;11865;45.394;10.978;2023-07-20T10:43:01;10.73;;;5.60;;
23384;SDS011;11865;45.394;10.978;2023-07-20T10:48:15;10.55;;;5.75;;
23384;SDS011;11865;45.394;10.978;2023-07-20T10:53:38;10.38;;;6.60;;
23384;SDS011;11865;45.394;10.978;2023-07-20T10:56:11;9.13;;;5.43;;
23384;SDS011;11865;45.394;10.978;2023-07-20T10:58:41;9.48;;;5.28;;
23384;SDS011;11865;45.394;10.978;2023-07-20T11:01:11;9.10;;;5.53;;
23384;SDS011;11865;45.394;10.978;2023-07-20T11:03:43;12.10;;;6.07;;
23384;SDS011;11865;45.394;10.978;2023-07-20T11:11:27;10.55;;;6.40;;
23384;SDS011;11865;45.394;10.978;2023-07-20T11:14:00;8.20;;;6.00;;
23384;SDS011;11865;45.394;10.978;2023-07-20T11:16:36;9.30;;;5.18;;
23384;SDS011;11865;45.394;10.978;2023-07-20T11:19:14;8.43;;;4.90;;
23384;SDS011;11865;45.394;10.978;2023-07-20T11:21:50;8.52;;;5.57;;
23384;SDS011;11865;45.394;10.978;2023-07-20T11:24:30;8.07;;;5.15;;
23384;SDS011;11865;45.394;10.978;2023-07-20T11:26:59;10.38;;;6.20;;
23384;SDS011;11865;45.394;10.978;2023-07-20T11:29:28;8.07;;;5.20;;
23384;SDS011;11865;45.394;10.978;2023-07-20T11:34:31;10.73;;;5.40;;
23384;SDS011;11865;45.394;10.978;2023-07-20T11:37:00;9.07;;;5.13;;
23384;SDS011;11865;45.394;10.978;2023-07-20T11:39:32;7.70;;;5.30;;
23384;SDS011;11865;45.394;10.978;2023-07-20T11:41:59;9.63;;;5.60;;
23384;SDS011;11865;45.394;10.978;2023-07-20T11:44:28;12.60;;;5.13;;
23384;SDS011;11865;45.394;10.978;2023-07-20T11:47:00;12.75;;;5.63;;
23384;SDS011;11865;45.394;10.978;2023-07-20T11:49:34;9.52;;;5.38;;
23384;SDS011;11865;45.394;10.978;2023-07-20T11:52:04;10.38;;;5.30;;
23384;SDS011;11865;45.394;10.978;2023-07-20T11:54:37;9.32;;;5.60;;
23384;SDS011;11865;45.394;10.978;2023-07-20T11:57:06;9.10;;;5.07;;
23384;SDS011;11865;45.394;10.978;2023-07-20T11:59:58;11.77;;;6.15;;
23384;SDS011;11865;45.394;10.978;2023-07-20T12:02:31;8.65;;;5.70;;
23384;SDS011;11865;45.394;10.978;2023-07-20T12:04:59;9.48;;;5.72;;
23384;SDS011;11865;45.394;10.978;2023-07-20T12:07:27;9.23;;;5.22;;
23384;SDS011;11865;45.394;10.978;2023-07-20T12:12:43;8.63;;;5.57;;
23384;SDS011;11865;45.394;10.978;2023-07-20T12:15:21;14.88;;;5.88;;
23384;SDS011;11865;45.394;10.978;2023-07-20T12:17:58;13.13;;;5.85;;
23384;SDS011;11865;45.394;10.978;2023-07-20T12:20:28;7.75;;;5.53;;
23384;SDS011;11865;45.394;10.978;2023-07-20T12:23:00;10.88;;;5.53;;
23384;SDS011;11865;45.394;10.978;2023-07-20T12:25:42;10.18;;;5.32;;
23384;SDS011;11865;45.394;10.978;2023-07-20T12:28:12;9.70;;;5.22;;
23384;SDS011;11865;45.394;10.978;2023-07-20T12:30:42;9.88;;;5.80;;
23384;SDS011;11865;45.394;10.978;2023-07-20T12:33:13;13.63;;;6.07;;
23384;SDS011;11865;45.394;10.978;2023-07-20T12:35:43;11.43;;;5.70;;
23384;SDS011;11865;45.394;10.978;2023-07-20T12:38:10;9.43;;;5.78;;
23384;SDS011;11865;45.394;10.978;2023-07-20T12:40:38;10.93;;;5.80;;
23384;SDS011;11865;45.394;10.978;2023-07-20T12:43:05;12.00;;;6.60;;
23384;SDS011;11865;45.394;10.978;2023-07-20T12:45:33;13.85;;;6.53;;
23384;SDS011;11865;45.394;10.978;2023-07-20T12:48:01;13.55;;;6.43;;
23384;SDS011;11865;45.394;10.978;2023-07-20T12:50:28;12.65;;;5.60;;
23384;SDS011;11865;45.394;10.978;2023-07-20T12:52:56;10.98;;;5.45;;
23384;SDS011;11865;45.394;10.978;2023-07-20T12:55:24;13.38;;;6.53;;
23384;SDS011;11865;45.394;10.978;2023-07-20T12:57:51;8.30;;;5.60;;
23384;SDS011;11865;45.394;10.978;2023-07-20T13:00:19;10.68;;;6.03;;
23384;SDS011;11865;45.394;10.978;2023-07-20T13:02:49;10.07;;;6.22;;
23384;SDS011;11865;45.394;10.978;2023-07-20T13:05:33;11.52;;;6.38;;
23384;SDS011;11865;45.394;10.978;2023-07-20T13:08:05;17.52;;;6.63;;
23384;SDS011;11865;45.394;10.978;2023-07-20T13:10:35;12.65;;;6.28;;
23384;SDS011;11865;45.394;10.978;2023-07-20T13:13:03;14.57;;;6.10;;
23384;SDS011;11865;45.394;10.978;2023-07-20T13:15:32;13.90;;;6.90;;
23384;SDS011;11865;45.394;10.978;2023-07-20T13:18:07;11.05;;;6.00;;
23384;SDS011;11865;45.394;10.978;2023-07-20T13:20:34;9.98;;;5.93;;
23384;SDS011;11865;45.394;10.978;2023-07-20T13:23:02;12.45;;;6.43;;
23384;SDS011;11865;45.394;10.978;2023-07-20T13:25:29;11.05;;;5.93;;
23384;SDS011;11865;45.394;10.978;2023-07-20T13:27:57;11.85;;;6.25;;
23384;SDS011;11865;45.394;10.978;2023-07-20T13:30:24;10.90;;;5.40;;
23384;SDS011;11865;45.394;10.978;2023-07-20T13:32:54;9.70;;;6.18;;
23384;SDS011;11865;45.394;10.978;2023-07-20T13:35:21;14.68;;;5.97;;
23384;SDS011;11865;45.394;10.978;2023-07-20T13:37:49;9.73;;;6.18;;
23384;SDS011;11865;45.394;10.978;2023-07-20T13:40:16;9.93;;;6.25;;
23384;SDS011;11865;45.394;10.978;2023-07-20T13:42:45;12.02;;;6.68;;
23384;SDS011;11865;45.394;10.978;2023-07-20T13:45:13;11.63;;;6.88;;
23384;SDS011;11865;45.394;10.978;2023-07-20T13:47:41;13.90;;;7.20;;
23384;SDS011;11865;45.394;10.978;2023-07-20T13:50:12;13.13;;;7.28;;
23384;SDS011;11865;45.394;10.978;2023-07-20T13:52:52;9.25;;;6.03;;
23384;SDS011;11865;45.394;10.978;2023-07-20T13:55:40;10.77;;;5.97;;
23384;SDS011;11865;45.394;10.978;2023-07-20T13:58:10;11.77;;;6.28;;
23384;SDS011;11865;45.394;10.978;2023-07-20T14:00:39;9.43;;;5.75;;
23384;SDS011;11865;45.394;10.978;2023-07-20T14:03:07;12.68;;;7.05;;
23384;SDS011;11865;45.394;10.978;2023-07-20T14:05:39;19.30;;;7.10;;
23384;SDS011;11865;45.394;10.978;2023-07-20T14:08:09;10.40;;;6.18;;
23384;SDS011;11865;45.394;10.978;2023-07-20T14:10:37;39.95;;;13.07;;
23384;SDS011;11865;45.394;10.978;2023-07-20T14:13:07;13.68;;;5.53;;
23384;SDS011;11865;45.394;10.978;2023-07-20T14:15:35;11.68;;;5.38;;
23384;SDS011;11865;45.394;10.978;2023-07-20T14:18:03;9.73;;;5.03;;
23384;SDS011;11865;45.394;10.978;2023-07-20T14:20:30;11.60;;;5.00;;
23384;SDS011;11865;45.394;10.978;2023-07-20T14:22:58;11.40;;;6.20;;
23384;SDS011;11865;45.394;10.978;2023-07-20T14:25:25;10.63;;;5.50;;
23384;SDS011;11865;45.394;10.978;2023-07-20T14:27:55;10.02;;;5.85;;
23384;SDS011;11865;45.394;10.978;2023-07-20T14:30:23;12.02;;;5.70;;
23384;SDS011;11865;45.394;10.978;2023-07-20T14:32:50;9.60;;;6.03;;
23384;SDS011;11865;45.394;10.978;2023-07-20T14:35:18;8.35;;;6.20;;
23384;SDS011;11865;45.394;10.978;2023-07-20T14:37:46;7.22;;;5.13;;
23384;SDS011;11865;45.394;10.978;2023-07-20T14:40:14;10.75;;;5.55;;
23384;SDS011;11865;45.394;10.978;2023-07-20T14:42:41;8.63;;;5.10;;
23384;SDS011;11865;45.394;10.978;2023-07-20T14:45:09;9.27;;;4.90;;
23384;SDS011;11865;45.394;10.978;2023-07-20T14:47:36;12.15;;;5.70;;
23384;SDS011;11865;45.394;10.978;2023-07-20T14:50:05;8.88;;;5.05;;
23384;SDS011;11865;45.394;10.978;2023-07-20T14:52:33;9.70;;;5.22;;
23384;SDS011;11865;45.394;10.978;2023-07-20T14:55:00;8.55;;;5.50;;
23384;SDS011;11865;45.394;10.978;2023-07-20T14:57:28;8.90;;;5.25;;
23384;SDS011;11865;45.394;10.978;2023-07-20T14:59:56;10.45;;;5.05;;
23384;SDS011;11865;45.394;10.978;2023-07-20T15:02:23;9.50;;;5.40;;
23384;SDS011;11865;45.394;10.978;2023-07-20T15:04:52;11.20;;;5.63;;
23384;SDS011;11865;45.394;10.978;2023-07-20T15:07:20;12.43;;;6.32;;
23384;SDS011;11865;45.394;10.978;2023-07-20T15:09:50;17.17;;;7.10;;
23384;SDS011;11865;45.394;10.978;2023-07-20T15:12:18;11.70;;;5.57;;
23384;SDS011;11865;45.394;10.978;2023-07-20T15:14:49;8.27;;;5.13;;
23384;SDS011;11865;45.394;10.978;2023-07-20T15:17:38;9.70;;;5.53;;